createdAt,value
2023-05-14T00:01:29.783Z,25.63
2023-05-14T00:03:56.779Z,26.67
2023-05-14T00:06:23.810Z,24.27
2023-05-14T00:08:50.717Z,23.53
2023-05-14T00:11:17.690Z,25.50
2023-05-14T00:13:44.623Z,22.53
2023-05-14T00:16:12.105Z,22.90
2023-05-14T00:18:39.146Z,22.70
2023-05-14T00:21:06.038Z,23.27
2023-05-14T00:23:32.961Z,21.97
2023-05-14T00:25:59.846Z,23.40
2023-05-14T00:28:26.686Z,22.87
2023-05-14T00:30:53.777Z,22.10
2023-05-14T00:33:20.640Z,21.50
2023-05-14T00:35:47.502Z,21.57
2023-05-14T00:38:19.393Z,23.00
2023-05-14T00:40:51.387Z,21.60
2023-05-14T00:43:20.255Z,21.90
2023-05-14T00:45:50.036Z,21.53
2023-05-14T00:48:17.362Z,20.60
2023-05-14T00:50:44.265Z,24.83
2023-05-14T00:53:11.914Z,20.27
2023-05-14T00:55:39.303Z,29.30
2023-05-14T00:58:12.124Z,20.53
2023-05-14T01:00:40.061Z,37.10
2023-05-14T01:03:08.252Z,19.97
2023-05-14T01:06:11.153Z,19.50
2023-05-14T01:09:34.401Z,20.90
2023-05-14T01:12:23.613Z,18.60
2023-05-14T01:15:18.550Z,33.70
2023-05-14T01:17:52.106Z,20.17
2023-05-14T01:20:19.529Z,20.20
2023-05-14T01:22:46.487Z,20.53
2023-05-14T01:25:13.492Z,21.27
2023-05-14T01:27:49.902Z,19.70
2023-05-14T01:30:22.193Z,20.83
2023-05-14T01:32:56.398Z,20.30
2023-05-14T01:35:27.148Z,22.10
2023-05-14T01:37:57.460Z,20.97
2023-05-14T01:40:25.688Z,21.50
2023-05-14T01:42:54.103Z,20.93
2023-05-14T01:45:21.829Z,22.07
2023-05-14T01:47:48.750Z,21.40
2023-05-14T01:50:16.002Z,20.50
2023-05-14T01:52:42.963Z,20.47
2023-05-14T01:55:10.212Z,21.10
2023-05-14T01:57:37.224Z,21.10
2023-05-14T02:00:04.603Z,20.70
2023-05-14T02:02:31.768Z,21.33
2023-05-14T02:04:58.661Z,22.17
2023-05-14T02:07:25.658Z,21.13
2023-05-14T02:09:52.513Z,21.77
2023-05-14T02:12:19.443Z,23.20
2023-05-14T02:14:46.357Z,21.00
2023-05-14T02:17:15.967Z,21.87
2023-05-14T02:19:42.930Z,22.70
2023-05-14T02:22:09.843Z,21.70
2023-05-14T02:24:36.744Z,23.13
2023-05-14T02:27:03.799Z,22.60
2023-05-14T02:29:30.729Z,22.80
2023-05-14T02:31:57.605Z,22.10
2023-05-14T02:34:24.486Z,22.90
2023-05-14T02:36:51.334Z,23.33
2023-05-14T02:39:18.251Z,23.00
2023-05-14T02:41:45.149Z,24.57
2023-05-14T02:44:12.062Z,22.83
2023-05-14T02:46:38.998Z,24.00
2023-05-14T02:49:05.896Z,23.00
2023-05-14T02:51:32.769Z,21.87
2023-05-14T02:53:59.734Z,23.30
2023-05-14T02:56:26.717Z,25.23
2023-05-14T02:58:53.633Z,25.63
2023-05-14T03:01:20.930Z,24.97
2023-05-14T03:03:48.587Z,26.10
2023-05-14T03:06:15.938Z,26.43
2023-05-14T03:08:42.879Z,27.03
2023-05-14T03:11:09.756Z,25.77
2023-05-14T03:13:36.604Z,25.20
2023-05-14T03:16:03.505Z,25.00
2023-05-14T03:18:30.879Z,26.27
2023-05-14T03:20:57.855Z,25.47
2023-05-14T03:23:24.764Z,25.40
2023-05-14T03:25:52.546Z,25.97
2023-05-14T03:28:19.381Z,25.10
2023-05-14T03:30:46.349Z,25.33
2023-05-14T03:33:14.095Z,25.53
2023-05-14T03:35:40.969Z,25.37
2023-05-14T03:38:07.903Z,26.53
2023-05-14T03:40:34.818Z,25.43
2023-05-14T03:43:01.693Z,26.40
2023-05-14T03:45:30.453Z,26.33
2023-05-14T03:47:57.444Z,26.93
2023-05-14T03:50:25.809Z,24.77
2023-05-14T03:52:52.969Z,24.10
2023-05-14T03:55:20.490Z,23.27
2023-05-14T03:57:48.769Z,24.93
2023-05-14T04:00:16.117Z,25.20
2023-05-14T04:02:43.371Z,23.40
2023-05-14T04:05:11.655Z,23.60
2023-05-14T04:07:38.524Z,23.13
2023-05-14T04:10:06.404Z,21.30
2023-05-14T04:12:33.295Z,19.80
2023-05-14T04:15:00.200Z,19.63
2023-05-14T04:17:27.129Z,18.50
2023-05-14T04:19:54.043Z,17.23
2023-05-14T04:22:20.996Z,16.40
2023-05-14T04:24:47.922Z,16.20
2023-05-14T04:27:21.178Z,15.90
2023-05-14T04:29:49.367Z,14.80
2023-05-14T04:32:16.702Z,15.13
2023-05-14T04:34:43.878Z,13.27
2023-05-14T04:37:10.805Z,13.90
2023-05-14T04:39:38.698Z,12.90
2023-05-14T04:42:06.893Z,11.90
2023-05-14T04:44:35.001Z,12.47
2023-05-14T04:47:02.315Z,11.30
2023-05-14T04:49:29.403Z,11.50
2023-05-14T04:51:56.305Z,11.00
2023-05-14T04:54:23.213Z,11.13
2023-05-14T04:56:51.168Z,11.00
2023-05-14T04:59:18.318Z,10.67
2023-05-14T05:01:45.991Z,11.27
2023-05-14T05:04:13.182Z,11.50
2023-05-14T05:06:40.274Z,10.20
2023-05-14T05:09:08.759Z,10.57
2023-05-14T05:11:35.596Z,10.30
2023-05-14T05:14:02.531Z,11.00
2023-05-14T05:16:29.429Z,10.20
2023-05-14T05:18:56.415Z,9.50
2023-05-14T05:21:23.422Z,9.53
2023-05-14T05:23:50.368Z,9.03
2023-05-14T05:26:17.472Z,10.50
2023-05-14T05:28:44.361Z,8.63
2023-05-14T05:31:11.335Z,8.23
2023-05-14T05:33:38.810Z,9.50
2023-05-14T05:36:05.900Z,7.97
2023-05-14T05:38:32.796Z,8.90
2023-05-14T05:40:59.691Z,8.33
2023-05-14T05:43:28.639Z,8.57
2023-05-14T05:45:55.638Z,8.53
2023-05-14T05:48:22.692Z,8.47
2023-05-14T05:50:50.292Z,9.43
2023-05-14T05:53:17.177Z,9.80
2023-05-14T05:55:44.101Z,8.97
2023-05-14T05:58:11.012Z,8.90
2023-05-14T06:00:37.883Z,8.80
2023-05-14T06:03:04.987Z,9.50
2023-05-14T06:05:31.934Z,8.87
2023-05-14T06:07:58.932Z,8.90
2023-05-14T06:10:26.105Z,9.00
2023-05-14T06:12:53.130Z,8.43
2023-05-14T06:15:20.028Z,8.23
2023-05-14T06:17:46.926Z,8.07
2023-05-14T06:20:14.052Z,8.13
2023-05-14T06:22:40.878Z,7.40
2023-05-14T06:25:08.514Z,7.77
2023-05-14T06:27:35.454Z,7.70
2023-05-14T06:30:02.330Z,6.80
2023-05-14T06:32:29.244Z,7.70
2023-05-14T06:34:56.153Z,7.00
2023-05-14T06:37:23.094Z,7.00
2023-05-14T06:39:50.524Z,6.33
2023-05-14T06:42:17.685Z,6.80
2023-05-14T06:44:45.454Z,6.10
2023-05-14T06:47:12.413Z,6.03
2023-05-14T06:49:39.514Z,6.50
2023-05-14T06:52:07.107Z,6.80
2023-05-14T06:54:34.288Z,5.83
2023-05-14T06:57:01.192Z,5.93
2023-05-14T06:59:28.208Z,6.20
2023-05-14T07:01:55.670Z,6.03
2023-05-14T07:04:22.731Z,5.63
2023-05-14T07:06:49.607Z,6.03
2023-05-14T07:09:16.882Z,6.03
2023-05-14T07:11:43.738Z,4.50
2023-05-14T07:14:10.732Z,5.40
2023-05-14T07:16:37.771Z,5.20
2023-05-14T07:19:04.832Z,4.90
2023-05-14T07:21:32.563Z,5.00
2023-05-14T07:23:59.525Z,5.50
2023-05-14T07:26:26.381Z,5.73
2023-05-14T07:28:53.310Z,4.80
2023-05-14T07:31:20.322Z,4.37
2023-05-14T07:33:47.673Z,3.57
2023-05-14T07:36:14.702Z,3.93
2023-05-14T07:38:41.786Z,3.83
2023-05-14T07:41:08.776Z,3.33
2023-05-14T07:43:35.660Z,3.80
2023-05-14T07:46:02.704Z,3.23
2023-05-14T07:48:29.619Z,3.67
2023-05-14T07:50:56.533Z,3.77
2023-05-14T07:53:24.978Z,3.40
2023-05-14T07:55:52.150Z,3.70
2023-05-14T07:58:19.028Z,3.87
2023-05-14T08:00:45.885Z,3.10
2023-05-14T08:03:12.863Z,3.50
2023-05-14T08:05:39.749Z,3.73
2023-05-14T08:08:06.703Z,3.40
2023-05-14T08:10:33.574Z,3.43
2023-05-14T08:13:00.502Z,2.80
2023-05-14T08:15:27.995Z,3.00
2023-05-14T08:17:55.054Z,3.00
2023-05-14T08:20:22.630Z,2.63
2023-05-14T08:22:49.749Z,3.20
2023-05-14T08:25:16.763Z,2.80
2023-05-14T08:27:43.811Z,3.10
2023-05-14T08:30:11.566Z,3.00
2023-05-14T08:32:38.849Z,3.53
2023-05-14T08:35:06.830Z,3.13
2023-05-14T08:37:33.809Z,2.77
2023-05-14T08:40:00.792Z,2.77
2023-05-14T08:42:29.202Z,2.90
2023-05-14T08:45:02.021Z,2.73
2023-05-14T08:47:33.169Z,2.77
2023-05-14T08:50:08.578Z,2.37
2023-05-14T08:52:36.151Z,2.63
2023-05-14T08:55:06.893Z,2.03
2023-05-14T08:57:34.750Z,2.10
2023-05-14T09:00:08.370Z,2.30
2023-05-14T09:02:36.775Z,2.10
2023-05-14T09:05:04.315Z,2.30
2023-05-14T09:07:31.611Z,1.63
2023-05-14T09:09:59.668Z,2.50
2023-05-14T09:12:26.663Z,1.70
2023-05-14T09:14:54.033Z,1.90
2023-05-14T09:17:21.318Z,2.13
2023-05-14T09:19:49.351Z,2.30
2023-05-14T09:22:17.641Z,1.63
2023-05-14T09:24:44.958Z,1.70
2023-05-14T09:27:21.465Z,2.17
2023-05-14T09:29:48.688Z,1.30
2023-05-14T09:32:15.656Z,2.03
2023-05-14T09:34:42.539Z,1.47
2023-05-14T09:37:09.818Z,1.23
2023-05-14T09:39:37.922Z,1.53
2023-05-14T09:42:05.329Z,1.67
2023-05-14T09:44:32.346Z,2.07
2023-05-14T09:46:59.369Z,1.80
2023-05-14T09:49:26.324Z,1.40
2023-05-14T09:51:53.419Z,1.80
2023-05-14T09:54:20.371Z,1.60
2023-05-14T09:56:48.430Z,1.70
2023-05-14T09:59:15.390Z,1.43
2023-05-14T10:01:44.421Z,1.50
2023-05-14T10:04:12.708Z,1.20
2023-05-14T10:06:42.234Z,1.03
2023-05-14T10:09:15.527Z,1.50
2023-05-14T10:11:50.254Z,2.03
2023-05-14T10:14:33.820Z,2.00
2023-05-14T10:17:03.347Z,1.87
2023-05-14T10:19:37.300Z,1.40
2023-05-14T10:22:07.193Z,1.80
2023-05-14T10:24:34.853Z,2.17
2023-05-14T10:27:02.093Z,1.97
2023-05-14T10:29:37.524Z,2.23
2023-05-14T10:32:06.726Z,6.27
2023-05-14T10:34:44.364Z,3.03
2023-05-14T10:37:19.495Z,3.33
2023-05-14T10:39:54.435Z,1.80
2023-05-14T10:42:33.453Z,2.70
2023-05-14T10:45:05.972Z,3.70
2023-05-14T10:47:33.875Z,1.80
2023-05-14T10:50:10.573Z,2.13
2023-05-14T10:52:37.874Z,2.00
2023-05-14T10:55:10.179Z,1.93
2023-05-14T10:57:42.793Z,1.70
2023-05-14T11:00:11.142Z,2.33
2023-05-14T11:02:39.964Z,1.90
2023-05-14T11:05:15.946Z,1.80
2023-05-14T11:07:48.818Z,1.57
2023-05-14T11:10:22.680Z,1.90
2023-05-14T11:12:51.121Z,1.70
2023-05-14T11:15:21.255Z,1.60
2023-05-14T11:17:49.952Z,1.83
2023-05-14T11:20:17.737Z,1.60
2023-05-14T11:22:46.328Z,1.80
2023-05-14T11:25:14.996Z,1.43
2023-05-14T11:27:44.380Z,1.30
2023-05-14T11:30:19.524Z,1.83
2023-05-14T11:32:47.849Z,1.47
2023-05-14T11:35:15.473Z,1.50
2023-05-14T11:37:43.042Z,1.77
2023-05-14T11:40:16.959Z,1.43
2023-05-14T11:42:43.958Z,1.60
2023-05-14T11:45:24.041Z,1.50
2023-05-14T11:47:52.445Z,1.20
2023-05-14T11:50:19.420Z,1.30
2023-05-14T11:52:48.102Z,1.60
2023-05-14T11:55:15.481Z,1.20
2023-05-14T11:57:42.629Z,1.20
2023-05-14T12:00:16.894Z,1.70
2023-05-14T12:02:43.969Z,1.30
2023-05-14T12:05:13.413Z,1.13
2023-05-14T12:07:40.417Z,1.30
2023-05-14T12:10:08.062Z,1.40
2023-05-14T12:12:37.191Z,1.20
2023-05-14T12:15:15.375Z,0.93
2023-05-14T12:17:42.530Z,1.50
2023-05-14T12:20:11.084Z,1.43
2023-05-14T12:22:38.359Z,1.30
2023-05-14T12:25:11.306Z,1.30
2023-05-14T12:27:38.176Z,1.23
2023-05-14T12:30:20.673Z,1.30
2023-05-14T12:32:53.769Z,1.87
2023-05-14T12:35:21.667Z,1.53
2023-05-14T12:37:48.671Z,1.30
2023-05-14T12:40:15.523Z,1.20
2023-05-14T12:42:42.409Z,1.50
2023-05-14T12:45:09.784Z,1.30
2023-05-14T12:47:37.300Z,1.40
2023-05-14T12:50:05.147Z,1.13
2023-05-14T12:55:01.893Z,1.10
2023-05-14T12:57:30.238Z,3.30
2023-05-14T12:59:57.650Z,1.50
2023-05-14T13:02:24.602Z,1.13
2023-05-14T13:04:51.483Z,1.13
2023-05-14T13:07:18.558Z,2.67
2023-05-14T13:09:45.424Z,9.20
2023-05-14T13:12:12.333Z,1.20
2023-05-14T13:14:39.197Z,5.33
2023-05-14T13:17:08.065Z,1.97
2023-05-14T13:19:35.193Z,1.50
2023-05-14T13:22:02.099Z,1.70
2023-05-14T13:24:29.003Z,1.50
2023-05-14T13:26:55.887Z,1.50
2023-05-14T13:29:22.845Z,1.47
2023-05-14T13:31:49.736Z,1.07
2023-05-14T13:34:16.590Z,1.23
2023-05-14T13:36:43.797Z,1.20
2023-05-14T13:39:13.097Z,1.40
2023-05-14T13:41:41.467Z,1.20
2023-05-14T13:44:08.405Z,1.50
2023-05-14T13:46:35.425Z,1.10
2023-05-14T13:49:02.392Z,1.40
2023-05-14T13:51:29.253Z,1.33
2023-05-14T13:53:56.369Z,1.30
2023-05-14T13:56:23.653Z,1.50
2023-05-14T13:58:50.691Z,1.50
2023-05-14T14:01:17.726Z,1.30
2023-05-14T14:03:44.647Z,1.43
2023-05-14T14:06:11.850Z,1.30
2023-05-14T14:08:38.764Z,1.10
2023-05-14T14:11:05.877Z,1.37
2023-05-14T14:13:32.781Z,1.40
2023-05-14T14:15:59.832Z,1.70
2023-05-14T14:18:27.126Z,1.47
2023-05-14T14:20:54.103Z,1.50
2023-05-14T14:23:21.445Z,1.90
2023-05-14T14:25:48.359Z,1.53
2023-05-14T14:28:15.223Z,1.67
2023-05-14T14:30:42.280Z,3.67
2023-05-14T14:33:09.242Z,1.87
2023-05-14T14:35:37.487Z,1.40
2023-05-14T14:38:04.377Z,1.70
2023-05-14T14:40:33.830Z,1.90
2023-05-14T14:43:02.058Z,1.73
2023-05-14T14:45:28.992Z,1.40
2023-05-14T14:48:28.973Z,1.30
2023-05-14T14:50:55.976Z,1.60
2023-05-14T14:53:24.424Z,1.80
2023-05-14T14:55:51.586Z,2.10
2023-05-14T14:58:19.884Z,1.93
2023-05-14T15:00:47.578Z,1.77
2023-05-14T15:03:15.389Z,1.80
2023-05-14T15:05:42.559Z,1.90
2023-05-14T15:08:09.581Z,2.10
2023-05-14T15:10:38.192Z,1.87
2023-05-14T15:13:06.404Z,1.97
2023-05-14T15:15:34.834Z,2.00
2023-05-14T15:18:02.667Z,1.30
2023-05-14T15:20:29.757Z,1.20
2023-05-14T15:22:56.759Z,1.30
2023-05-14T15:25:24.766Z,1.40
2023-05-14T15:27:52.006Z,2.60
2023-05-14T15:30:18.971Z,1.30
2023-05-14T15:32:46.743Z,1.67
2023-05-14T15:35:13.902Z,1.60
2023-05-14T15:37:42.433Z,1.90
2023-05-14T15:40:13.242Z,1.53
2023-05-14T15:42:42.281Z,1.90
2023-05-14T15:45:10.760Z,2.10
2023-05-14T15:47:37.858Z,2.20
2023-05-14T15:50:05.792Z,1.70
2023-05-14T15:52:32.745Z,1.87
2023-05-14T15:55:00.278Z,1.90
2023-05-14T15:57:27.729Z,1.63
2023-05-14T15:59:54.715Z,1.93
2023-05-14T16:02:21.628Z,1.33
2023-05-14T16:04:49.657Z,1.30
2023-05-14T16:07:16.606Z,1.73
2023-05-14T16:09:43.570Z,1.20
2023-05-14T16:12:10.676Z,1.63
2023-05-14T16:14:38.578Z,1.40
2023-05-14T16:17:06.482Z,1.63
2023-05-14T16:19:33.382Z,1.60
2023-05-14T16:22:00.243Z,1.97
2023-05-14T16:24:27.122Z,1.57
2023-05-14T16:26:54.321Z,2.40
2023-05-14T16:29:21.157Z,1.67
2023-05-14T16:31:48.105Z,1.73
2023-05-14T16:34:15.056Z,1.70
2023-05-14T16:36:42.040Z,2.43
2023-05-14T16:39:08.879Z,2.73
2023-05-14T16:41:36.184Z,2.00
2023-05-14T16:44:03.441Z,1.77
2023-05-14T16:46:31.307Z,1.70
2023-05-14T16:48:58.316Z,1.73
2023-05-14T16:51:25.301Z,1.67
2023-05-14T16:53:52.244Z,2.13
2023-05-14T16:56:19.395Z,2.53
2023-05-14T16:58:46.290Z,2.63
2023-05-14T17:01:13.267Z,3.57
2023-05-14T17:03:40.791Z,2.63
2023-05-14T17:06:07.782Z,3.00
2023-05-14T17:08:35.898Z,2.83
2023-05-14T17:11:05.820Z,2.73
2023-05-14T17:13:33.333Z,2.83
2023-05-14T17:16:01.021Z,2.20
2023-05-14T17:18:28.482Z,1.90
2023-05-14T17:20:55.565Z,2.37
2023-05-14T17:23:22.559Z,2.07
2023-05-14T17:25:49.730Z,2.00
2023-05-14T17:28:16.631Z,1.90
2023-05-14T17:30:43.870Z,1.80
2023-05-14T17:33:11.568Z,2.00
2023-05-14T17:35:38.815Z,1.53
2023-05-14T17:38:05.828Z,1.80
2023-05-14T17:40:33.558Z,1.57
2023-05-14T17:43:00.612Z,2.00
2023-05-14T17:45:28.586Z,1.87
2023-05-14T17:50:24.422Z,2.00
2023-05-14T17:52:51.293Z,2.20
2023-05-14T17:55:19.193Z,2.40
2023-05-14T17:57:46.591Z,2.00
2023-05-14T18:00:14.062Z,2.60
2023-05-14T18:02:41.536Z,2.27
2023-05-14T18:05:08.895Z,1.73
2023-05-14T18:07:36.786Z,1.70
2023-05-14T18:10:04.289Z,1.80
2023-05-14T18:12:31.209Z,2.00
2023-05-14T18:14:58.076Z,2.30
2023-05-14T18:17:25.107Z,1.90
2023-05-14T18:19:51.987Z,1.53
2023-05-14T18:22:21.242Z,1.70
2023-05-14T18:24:48.307Z,1.87
2023-05-14T18:27:15.371Z,2.20
2023-05-14T18:29:42.891Z,2.40
2023-05-14T18:32:09.822Z,2.50
2023-05-14T18:34:36.732Z,2.30
2023-05-14T18:37:03.587Z,1.83
2023-05-14T18:39:30.443Z,2.90
2023-05-14T18:41:57.403Z,2.90
2023-05-14T18:44:24.406Z,2.87
2023-05-14T18:46:51.389Z,3.00
2023-05-14T18:49:18.280Z,3.30
2023-05-14T18:51:45.333Z,2.50
2023-05-14T18:54:12.210Z,3.07
2023-05-14T18:56:41.324Z,2.90
2023-05-14T18:59:09.316Z,3.27
2023-05-14T19:01:36.530Z,2.70
2023-05-14T19:04:05.413Z,2.90
2023-05-14T19:06:32.857Z,2.90
2023-05-14T19:09:00.004Z,2.90
2023-05-14T19:11:26.968Z,2.93
2023-05-14T19:13:53.841Z,3.37
2023-05-14T19:16:21.351Z,3.03
2023-05-14T19:18:49.851Z,2.80
2023-05-14T19:21:16.971Z,3.93
2023-05-14T19:23:43.928Z,3.00
2023-05-14T19:26:11.580Z,3.67
2023-05-14T19:28:38.998Z,2.40
2023-05-14T19:31:06.235Z,3.50
2023-05-14T19:33:33.206Z,3.37
2023-05-14T19:36:00.138Z,3.50
2023-05-14T19:38:27.597Z,3.20
2023-05-14T19:40:56.934Z,3.27
2023-05-14T19:43:28.060Z,3.20
2023-05-14T19:45:55.025Z,2.90
2023-05-14T19:48:21.984Z,2.93
2023-05-14T19:50:48.958Z,3.30
2023-05-14T19:53:15.848Z,3.10
2023-05-14T19:55:43.074Z,3.73
2023-05-14T19:58:10.099Z,3.90
2023-05-14T20:00:37.118Z,3.63
2023-05-14T20:03:05.973Z,3.20
2023-05-14T20:05:34.388Z,4.33
2023-05-14T20:08:01.308Z,3.70
2023-05-14T20:10:28.873Z,4.33
2023-05-14T20:12:55.752Z,3.80
2023-05-14T20:15:22.671Z,4.00
2023-05-14T20:17:49.633Z,6.40
2023-05-14T20:20:16.765Z,10.13
2023-05-14T20:22:44.130Z,7.47
2023-05-14T20:25:11.150Z,4.33
2023-05-14T20:27:38.202Z,5.00
2023-05-14T20:30:06.090Z,5.07
2023-05-14T20:32:33.170Z,4.93
2023-05-14T20:35:02.235Z,6.10
2023-05-14T20:37:30.496Z,5.07
2023-05-14T20:39:57.467Z,5.20
2023-05-14T20:42:25.068Z,6.43
2023-05-14T20:44:52.942Z,6.50
2023-05-14T20:47:23.158Z,5.43
2023-05-14T20:49:50.788Z,4.87
2023-05-14T20:52:18.816Z,5.90
2023-05-14T20:54:46.018Z,4.83
2023-05-14T20:57:15.288Z,5.70
2023-05-14T20:59:42.616Z,6.83
2023-05-14T21:02:09.645Z,7.10
2023-05-14T21:04:36.704Z,7.70
2023-05-14T21:07:04.929Z,7.13
2023-05-14T21:09:31.880Z,6.30
2023-05-14T21:11:58.818Z,6.67
2023-05-14T21:14:25.746Z,5.90
2023-05-14T21:16:52.834Z,7.47
2023-05-14T21:19:19.877Z,7.10
2023-05-14T21:21:47.473Z,7.33
2023-05-14T21:24:16.758Z,8.23
2023-05-14T21:26:43.886Z,7.20
2023-05-14T21:29:11.181Z,8.30
2023-05-14T21:31:38.163Z,7.80
2023-05-14T21:34:05.132Z,7.90
2023-05-14T21:36:32.068Z,8.60
2023-05-14T21:38:58.959Z,7.00
2023-05-14T21:41:25.885Z,8.63
2023-05-14T21:43:52.828Z,9.47
2023-05-14T21:46:19.753Z,7.97
2023-05-14T21:48:46.770Z,9.03
2023-05-14T21:51:13.784Z,10.47
2023-05-14T21:53:40.629Z,9.40
2023-05-14T21:56:08.305Z,9.37
2023-05-14T21:58:35.762Z,9.77
2023-05-14T22:01:02.702Z,8.20
2023-05-14T22:03:29.623Z,13.10
2023-05-14T22:05:56.943Z,12.80
2023-05-14T22:08:24.126Z,10.10
2023-05-14T22:10:51.066Z,9.87
2023-05-14T22:13:18.011Z,8.80
2023-05-14T22:15:45.050Z,10.83
2023-05-14T22:18:13.897Z,10.30
2023-05-14T22:20:41.177Z,10.40
2023-05-14T22:23:08.074Z,10.80
2023-05-14T22:25:35.000Z,9.60
2023-05-14T22:28:01.929Z,10.10
2023-05-14T22:30:28.848Z,10.07
2023-05-14T22:32:56.034Z,10.63
2023-05-14T22:35:23.062Z,9.87
2023-05-14T22:37:50.019Z,9.10
2023-05-14T22:40:17.014Z,8.57
2023-05-14T22:42:43.932Z,10.03
2023-05-14T22:45:11.170Z,9.10
2023-05-14T22:47:38.769Z,10.00
2023-05-14T22:50:11.382Z,10.00
2023-05-14T22:52:39.253Z,9.70
2023-05-14T22:55:07.184Z,10.67
2023-05-14T22:57:34.614Z,9.00
2023-05-14T23:00:01.646Z,9.60
2023-05-14T23:02:28.592Z,9.83
2023-05-14T23:04:55.868Z,9.73
2023-05-14T23:07:22.939Z,10.03
2023-05-14T23:09:49.826Z,9.37
2023-05-14T23:12:16.842Z,9.40
2023-05-14T23:14:43.768Z,10.10
2023-05-14T23:17:10.758Z,8.80
2023-05-14T23:19:37.746Z,9.30
2023-05-14T23:22:04.993Z,9.77
2023-05-14T23:24:31.827Z,8.77
2023-05-14T23:26:58.706Z,8.20
2023-05-14T23:29:25.644Z,8.93
2023-05-14T23:31:52.535Z,8.43
2023-05-14T23:34:19.444Z,9.27
2023-05-14T23:36:46.278Z,9.23
2023-05-14T23:39:13.193Z,9.10
2023-05-14T23:41:40.115Z,9.03
2023-05-14T23:44:07.345Z,9.97
2023-05-14T23:46:34.376Z,7.73
2023-05-14T23:49:01.436Z,10.10
2023-05-14T23:51:28.398Z,9.90
2023-05-14T23:53:58.520Z,9.40
2023-05-14T23:56:27.529Z,11.17
2023-05-14T23:58:54.583Z,9.90
